createdAt,value
2017-12-05T00:00:52.750Z,98584.53
2017-12-05T00:03:28.866Z,98587.20
2017-12-05T00:06:00.325Z,98586.48
2017-12-05T00:08:32.642Z,98594.48
2017-12-05T00:11:02.469Z,98589.85
2017-12-05T00:13:36.374Z,98595.45
2017-12-05T00:16:07.313Z,98583.30
2017-12-05T00:18:39.802Z,98602.66
2017-12-05T00:21:13.255Z,98607.41
2017-12-05T00:23:58.528Z,98613.70
2017-12-05T00:26:32.934Z,98611.47
2017-12-05T00:29:06.412Z,98608.70
2017-12-05T00:31:40.254Z,98613.58
2017-12-05T00:34:12.381Z,98601.41
2017-12-05T00:36:44.630Z,98594.80
2017-12-05T00:39:14.706Z,98599.06
2017-12-05T00:41:46.322Z,98584.70
2017-12-05T00:44:18.359Z,98586.41
2017-12-05T00:46:53.557Z,98583.69
2017-12-05T00:49:23.431Z,98590.07
2017-12-05T00:51:57.593Z,98600.76
2017-12-05T00:54:35.472Z,98597.17
2017-12-05T00:57:07.371Z,98591.52
2017-12-05T00:59:38.780Z,98600.30
2017-12-05T01:02:09.433Z,98602.08
2017-12-05T01:04:43.256Z,98603.50
2017-12-05T01:07:13.859Z,98603.86
2017-12-05T01:09:49.367Z,98599.05
2017-12-05T01:12:21.401Z,98603.20
2017-12-05T01:14:59.443Z,98602.58
2017-12-05T01:17:31.949Z,98606.30
2017-12-05T01:20:07.701Z,98608.27
2017-12-05T01:22:37.440Z,98603.44
2017-12-05T01:25:14.134Z,98609.88
2017-12-05T01:27:47.775Z,98613.61
2017-12-05T01:30:18.043Z,98608.48
2017-12-05T01:32:49.594Z,98604.78
2017-12-05T01:35:26.467Z,98608.36
2017-12-05T01:37:59.390Z,98610.80
2017-12-05T01:40:31.610Z,98606.53
2017-12-05T01:43:03.309Z,98613.17
2017-12-05T01:45:42.170Z,98613.92
2017-12-05T01:48:16.502Z,98605.33
2017-12-05T01:50:48.277Z,98610.38
2017-12-05T01:53:22.319Z,98621.16
2017-12-05T01:55:53.611Z,98613.72
2017-12-05T01:58:24.732Z,98604.25
2017-12-05T02:00:55.259Z,98604.38
2017-12-05T02:03:28.392Z,98608.11
2017-12-05T02:06:09.200Z,98609.94
2017-12-05T02:08:41.788Z,98601.34
2017-12-05T02:11:14.660Z,98606.80
2017-12-05T02:13:46.156Z,98613.77
2017-12-05T02:16:18.107Z,98599.84
2017-12-05T02:18:50.428Z,98600.43
2017-12-05T02:21:28.810Z,98612.45
2017-12-05T02:23:59.619Z,98617.52
2017-12-05T02:26:32.794Z,98617.83
2017-12-05T02:29:04.469Z,98622.56
2017-12-05T02:31:37.541Z,98617.05
2017-12-05T02:34:09.653Z,98629.98
2017-12-05T02:36:41.245Z,98627.80
2017-12-05T02:39:12.391Z,98625.84
2017-12-05T02:41:45.777Z,98629.15
2017-12-05T02:44:16.930Z,98630.03
2017-12-05T02:46:54.581Z,98638.66
2017-12-05T02:49:28.006Z,98630.23
2017-12-05T02:52:00.834Z,98634.76
2017-12-05T02:54:33.381Z,98637.06
2017-12-05T02:57:06.861Z,98645.49
2017-12-05T02:59:39.328Z,98639.36
2017-12-05T03:02:14.329Z,98652.89
2017-12-05T03:04:46.120Z,98656.61
2017-12-05T03:07:18.979Z,98659.90
2017-12-05T03:09:51.652Z,98670.88
2017-12-05T03:12:25.361Z,98669.23
2017-12-05T03:14:56.456Z,98662.98
2017-12-05T03:17:28.499Z,98656.66
2017-12-05T03:19:58.790Z,98658.20
2017-12-05T03:22:31.337Z,98664.64
2017-12-05T03:25:02.110Z,98666.78
2017-12-05T03:27:33.605Z,98670.67
2017-12-05T03:30:05.920Z,98670.76
2017-12-05T03:32:39.905Z,98672.35
2017-12-05T03:35:22.370Z,98674.64
2017-12-05T03:37:57.379Z,98679.58
2017-12-05T03:40:32.509Z,98679.39
2017-12-05T03:43:04.268Z,98679.22
2017-12-05T03:45:44.969Z,98686.38
2017-12-05T03:48:17.820Z,98682.73
2017-12-05T03:50:49.580Z,98682.47
2017-12-05T03:53:22.680Z,98676.87
2017-12-05T03:55:57.790Z,98689.06
2017-12-05T03:58:29.248Z,98695.53
2017-12-05T04:01:02.152Z,98692.16
2017-12-05T04:03:35.353Z,98691.51
2017-12-05T04:06:07.160Z,98701.02
2017-12-05T04:08:36.684Z,98708.95
2017-12-05T04:11:06.231Z,98702.61
2017-12-05T04:13:37.268Z,98710.56
2017-12-05T04:16:07.378Z,98719.55
2017-12-05T04:18:39.968Z,98716.62
2017-12-05T04:21:10.351Z,98721.84
2017-12-05T04:23:42.230Z,98726.08
2017-12-05T04:26:20.451Z,98726.34
2017-12-05T04:28:50.361Z,98730.63
2017-12-05T04:31:20.469Z,98734.63
2017-12-05T04:33:50.351Z,98739.48
2017-12-05T04:36:21.095Z,98726.66
2017-12-05T04:38:52.532Z,98725.70
2017-12-05T04:41:24.708Z,98730.40
2017-12-05T04:43:54.707Z,98738.58
2017-12-05T04:46:26.469Z,98736.83
2017-12-05T04:48:56.227Z,98734.68
2017-12-05T04:51:26.489Z,98733.82
2017-12-05T04:53:57.431Z,98738.11
2017-12-05T04:56:27.393Z,98731.66
2017-12-05T04:58:57.284Z,98732.74
2017-12-05T05:01:27.076Z,98737.44
2017-12-05T05:03:56.636Z,98742.70
2017-12-05T05:06:30.368Z,98747.11
2017-12-05T05:09:00.339Z,98746.02
2017-12-05T05:11:31.904Z,98747.98
2017-12-05T05:14:02.728Z,98754.51
2017-12-05T05:16:34.458Z,98756.31
2017-12-05T05:19:05.294Z,98755.39
2017-12-05T05:21:35.749Z,98752.09
2017-12-05T05:24:24.312Z,98751.73
2017-12-05T05:26:54.203Z,98754.55
2017-12-05T05:29:25.441Z,98749.83
2017-12-05T05:32:01.626Z,98750.37
2017-12-05T05:34:33.090Z,98763.77
2017-12-05T05:37:23.195Z,98759.16
2017-12-05T05:40:02.862Z,98763.73
2017-12-05T05:42:36.289Z,98765.89
2017-12-05T05:45:10.558Z,98765.72
2017-12-05T05:47:41.344Z,98772.89
2017-12-05T05:50:14.017Z,98776.57
2017-12-05T05:52:46.465Z,98781.09
2017-12-05T05:55:23.375Z,98789.21
2017-12-05T05:57:54.861Z,98787.20
2017-12-05T06:00:29.176Z,98783.16
2017-12-05T06:03:04.350Z,98775.00
2017-12-05T06:05:36.260Z,98772.46
2017-12-05T06:08:08.684Z,98780.61
2017-12-05T06:10:39.982Z,98782.45
2017-12-05T06:13:11.714Z,98782.70
2017-12-05T06:15:59.175Z,98785.47
2017-12-05T06:18:52.648Z,98776.75
2017-12-05T06:21:29.386Z,98788.28
2017-12-05T06:24:01.637Z,98791.59
2017-12-05T06:26:34.804Z,98805.36
2017-12-05T06:29:06.760Z,98801.17
2017-12-05T06:31:39.315Z,98795.54
2017-12-05T06:34:09.107Z,98799.23
2017-12-05T06:36:41.779Z,98798.11
2017-12-05T06:39:12.037Z,98814.34
2017-12-05T06:41:44.413Z,98805.36
2017-12-05T06:44:16.846Z,98812.24
2017-12-05T06:46:48.229Z,98818.48
2017-12-05T06:49:18.684Z,98809.97
2017-12-05T06:51:48.116Z,98802.69
2017-12-05T06:54:20.180Z,98809.52
2017-12-05T06:56:50.275Z,98806.09
2017-12-05T06:59:22.287Z,98812.28
2017-12-05T07:01:53.174Z,98820.53
2017-12-05T07:04:24.132Z,98820.75
2017-12-05T07:06:54.456Z,98819.01
2017-12-05T07:09:26.072Z,98815.84
2017-12-05T07:11:57.211Z,98818.34
2017-12-05T07:14:27.446Z,98817.45
2017-12-05T07:16:58.064Z,98817.74
2017-12-05T07:19:28.671Z,98816.63
2017-12-05T07:21:59.665Z,98817.13
2017-12-05T07:24:30.375Z,98821.31
2017-12-05T07:27:00.558Z,98821.15
2017-12-05T07:29:31.395Z,98818.05
2017-12-05T07:32:02.283Z,98818.49
2017-12-05T07:34:35.387Z,98818.38
2017-12-05T07:37:07.065Z,98817.66
2017-12-05T07:39:37.242Z,98820.89
2017-12-05T07:42:11.201Z,98823.41
2017-12-05T07:44:46.038Z,98820.63
2017-12-05T07:47:16.214Z,98825.94
2017-12-05T07:49:47.099Z,98826.20
2017-12-05T07:52:17.577Z,98827.31
2017-12-05T07:54:51.692Z,98820.95
2017-12-05T07:57:21.780Z,98826.11
2017-12-05T07:59:55.276Z,98825.36
2017-12-05T08:02:26.456Z,98826.01
2017-12-05T08:04:56.268Z,98830.80
2017-12-05T08:07:30.542Z,98825.80
2017-12-05T08:10:11.277Z,98826.70
2017-12-05T08:12:42.636Z,98820.11
2017-12-05T08:15:14.287Z,98826.31
2017-12-05T08:17:46.575Z,98823.14
2017-12-05T08:20:17.317Z,98829.56
2017-12-05T08:22:47.891Z,98828.57
2017-12-05T08:25:18.127Z,98825.50
2017-12-05T08:27:48.472Z,98833.88
2017-12-05T08:30:19.418Z,98836.13
2017-12-05T08:32:49.425Z,98832.89
2017-12-05T08:35:19.090Z,98829.88
2017-12-05T08:37:50.380Z,98826.66
2017-12-05T08:40:21.700Z,98822.56
2017-12-05T08:42:52.480Z,98820.00
2017-12-05T08:45:22.632Z,98814.88
2017-12-05T08:47:57.776Z,98819.47
2017-12-05T08:50:28.200Z,98819.99
2017-12-05T08:53:01.174Z,98818.14
2017-12-05T08:55:31.382Z,98815.33
2017-12-05T08:58:01.047Z,98820.54
2017-12-05T09:00:31.111Z,98820.16
2017-12-05T09:03:00.976Z,98816.78
2017-12-05T09:05:34.681Z,98823.01
2017-12-05T09:08:04.643Z,98812.60
2017-12-05T09:10:36.204Z,98814.55
2017-12-05T09:13:07.155Z,98820.57
2017-12-05T09:15:37.205Z,98823.88
2017-12-05T09:18:08.240Z,98822.91
2017-12-05T09:20:38.455Z,98817.74
2017-12-05T09:23:09.685Z,98813.19
2017-12-05T09:25:40.244Z,98815.81
2017-12-05T09:28:10.314Z,98806.97
2017-12-05T09:30:46.474Z,98807.23
2017-12-05T09:33:16.375Z,98806.09
2017-12-05T09:35:46.086Z,98803.61
2017-12-05T09:38:17.625Z,98801.56
2017-12-05T09:40:48.416Z,98784.66
2017-12-05T09:43:19.761Z,98792.66
2017-12-05T09:45:51.080Z,98798.45
2017-12-05T09:48:25.306Z,98791.19
2017-12-05T09:50:55.098Z,98786.96
2017-12-05T09:53:24.700Z,98785.70
2017-12-05T09:55:56.140Z,98786.38
2017-12-05T09:58:26.400Z,98784.26
2017-12-05T10:00:58.730Z,98788.20
2017-12-05T10:03:28.230Z,98786.09
2017-12-05T10:05:58.064Z,98778.17
2017-12-05T10:08:28.723Z,98774.73
2017-12-05T10:10:59.041Z,98770.80
2017-12-05T10:13:29.145Z,98769.48
2017-12-05T10:15:59.676Z,98765.52
2017-12-05T10:18:29.255Z,98769.44
2017-12-05T10:20:59.449Z,98764.38
2017-12-05T10:23:29.695Z,98748.06
2017-12-05T10:26:00.951Z,98743.77
2017-12-05T10:28:32.727Z,98745.45
2017-12-05T10:31:04.335Z,98745.19
2017-12-05T10:33:37.063Z,98740.96
2017-12-05T10:36:07.056Z,98733.75
2017-12-05T10:38:37.197Z,98737.23
2017-12-05T10:41:08.592Z,98738.81
2017-12-05T10:46:17.759Z,98741.72
2017-12-05T10:48:48.308Z,98736.48
2017-12-05T10:51:18.200Z,98743.33
2017-12-05T10:53:48.315Z,98748.60
2017-12-05T10:56:18.450Z,98746.88
2017-12-05T10:58:55.631Z,98751.36
2017-12-05T11:01:28.476Z,98744.94
2017-12-05T11:04:00.452Z,98748.10
2017-12-05T11:06:31.614Z,98742.00
2017-12-05T11:09:01.400Z,98739.50
2017-12-05T11:11:32.101Z,98747.60
2017-12-05T11:14:03.429Z,98741.03
2017-12-05T11:16:34.525Z,98737.41
2017-12-05T11:19:05.124Z,98741.72
2017-12-05T11:21:40.417Z,98741.61
2017-12-05T11:24:10.367Z,98743.75
2017-12-05T11:26:42.367Z,98750.39
2017-12-05T11:29:12.180Z,98746.74
2017-12-05T11:31:42.140Z,98740.59
2017-12-05T11:34:14.741Z,98751.08
2017-12-05T11:36:48.130Z,98749.28
2017-12-05T11:39:18.316Z,98757.33
2017-12-05T11:41:48.795Z,98750.06
2017-12-05T11:44:20.460Z,98752.55
2017-12-05T11:46:50.278Z,98749.40
2017-12-05T11:49:20.744Z,98750.94
2017-12-05T11:51:50.452Z,98749.39
2017-12-05T11:54:28.602Z,98761.72
2017-12-05T11:56:58.156Z,98756.59
2017-12-05T11:59:28.337Z,98756.09
2017-12-05T12:01:59.163Z,98739.55
2017-12-05T12:04:29.416Z,98746.84
2017-12-05T12:06:59.462Z,98751.78
2017-12-05T12:09:29.357Z,98748.19
2017-12-05T12:12:00.626Z,98739.38
2017-12-05T12:14:30.332Z,98741.41
2017-12-05T12:17:00.239Z,98740.06
2017-12-05T12:19:34.241Z,98745.03
2017-12-05T12:22:04.822Z,98752.20
2017-12-05T12:24:35.051Z,98745.58
2017-12-05T12:27:06.795Z,98739.37
2017-12-05T12:29:36.723Z,98743.35
2017-12-05T12:32:08.096Z,98749.17
2017-12-05T12:34:40.318Z,98737.25
2017-12-05T12:37:11.287Z,98748.42
2017-12-05T22:33:01.770Z,98824.96
2017-12-05T22:35:33.552Z,98821.55
2017-12-05T22:38:04.698Z,98822.28
2017-12-05T22:40:36.402Z,98817.18
2017-12-05T22:43:07.633Z,98828.34
2017-12-05T22:45:40.177Z,98831.64
2017-12-05T22:48:13.422Z,98821.17
2017-12-05T22:50:44.604Z,98821.33
2017-12-05T22:53:16.743Z,98826.50
2017-12-05T22:55:48.362Z,98821.54
2017-12-05T22:58:20.458Z,98823.48
2017-12-05T23:01:03.264Z,98823.15
2017-12-05T23:03:36.428Z,98827.89
2017-12-05T23:06:14.969Z,98829.44
2017-12-05T23:08:53.004Z,98839.12
2017-12-05T23:11:28.134Z,98827.55
2017-12-05T23:14:00.649Z,98822.78
2017-12-05T23:16:32.198Z,98822.03
2017-12-05T23:19:07.625Z,98814.14
2017-12-05T23:21:42.358Z,98812.80
2017-12-05T23:24:17.763Z,98818.52
2017-12-05T23:26:55.607Z,98818.52
2017-12-05T23:29:35.552Z,98822.78
2017-12-05T23:32:08.438Z,98822.00
2017-12-05T23:34:45.920Z,98817.55
2017-12-05T23:37:27.467Z,98809.31
2017-12-05T23:40:00.420Z,98798.47
2017-12-05T23:42:37.180Z,98804.83
2017-12-05T23:45:13.647Z,98801.64
